Time;durP1;ratioP1;P1;durP2;ratioP2;P2;SDS_P1;SDS_P2;PMS_P1;PMS_P2;Temp;Humidity;BMP_temperature;BMP_pressure;BME280_temperature;BME280_humidity;BME280_pressure;Samples;Min_cycle;Max_cycle;Signal;HPM_P1;HPM_P2
2022/02/23 00:03:18;;;;;;;20.80;6.03;;;;;;;;;;6216282;28;20695;-70
2022/02/23 00:06:39;;;;;;;25.07;7.57;;;;;;;;;;6212674;28;20229;-70
2022/02/23 00:10:00;;;;;;;22.87;6.23;;;;;;;;;;6217429;28;20252;-70
2022/02/23 00:13:20;;;;;;;26.77;8.10;;;;;;;;;;6216105;28;20245;-70
2022/02/23 00:16:41;;;;;;;27.40;8.17;;;;;;;;;;6213252;28;20245;-70
2022/02/23 00:20:04;;;;;;;21.67;7.60;;;;;;;;;;6216133;28;20236;-70
2022/02/23 00:23:24;;;;;;;22.73;6.93;;;;;;;;;;6209513;28;20236;-69
2022/02/23 00:26:45;;;;;;;19.60;6.77;;;;;;;;;;6216866;28;20232;-70
2022/02/23 00:30:06;;;;;;;22.90;8.03;;;;;;;;;;6212175;28;20225;-70
2022/02/23 00:33:27;;;;;;;36.10;8.53;;;;;;;;;;6208652;28;20640;-70
2022/02/23 00:36:48;;;;;;;21.90;7.10;;;;;;;;;;6195022;28;20228;-70
2022/02/23 00:40:09;;;;;;;28.13;7.60;;;;;;;;;;6217202;28;20815;-70
2022/02/23 00:43:30;;;;;;;27.60;8.83;;;;;;;;;;6210579;28;20249;-71
2022/02/23 00:46:50;;;;;;;21.77;6.53;;;;;;;;;;6217828;28;20225;-70
2022/02/23 00:50:11;;;;;;;21.13;7.50;;;;;;;;;;6217396;28;20232;-70
2022/02/23 00:53:33;;;;;;;25.63;6.87;;;;;;;;;;6215501;28;20236;-70
2022/02/23 00:56:53;;;;;;;24.30;6.73;;;;;;;;;;6214290;28;21052;-70
2022/02/23 01:00:14;;;;;;;30.23;7.80;;;;;;;;;;6205730;28;20237;-70
2022/02/23 01:03:35;;;;;;;32.00;6.90;;;;;;;;;;6209984;28;20241;-70
2022/02/23 01:06:55;;;;;;;19.73;6.13;;;;;;;;;;6214386;28;20671;-69
2022/02/23 01:10:17;;;;;;;22.83;6.77;;;;;;;;;;6211255;28;20518;-71
2022/02/23 01:13:37;;;;;;;22.80;7.70;;;;;;;;;;6214327;28;20225;-70
2022/02/23 01:16:58;;;;;;;26.27;8.03;;;;;;;;;;6210384;28;20324;-70
2022/02/23 01:20:19;;;;;;;27.50;7.17;;;;;;;;;;6214073;28;20241;-69
2022/02/23 01:23:40;;;;;;;21.90;7.70;;;;;;;;;;6214433;28;20320;-71
2022/02/23 01:27:01;;;;;;;22.10;8.67;;;;;;;;;;6212665;28;20233;-71
2022/02/23 01:30:22;;;;;;;21.67;7.30;;;;;;;;;;6212964;28;20333;-71
2022/02/23 01:33:43;;;;;;;33.77;8.17;;;;;;;;;;6213272;28;20240;-70
2022/02/23 01:37:03;;;;;;;24.07;7.57;;;;;;;;;;6210406;28;20234;-71
2022/02/23 01:40:24;;;;;;;24.00;6.90;;;;;;;;;;6214997;28;20336;-70
2022/02/23 01:43:46;;;;;;;17.60;6.87;;;;;;;;;;6212815;28;20233;-71
2022/02/23 01:47:07;;;;;;;28.33;7.70;;;;;;;;;;6216449;28;20225;-71
2022/02/23 01:50:28;;;;;;;26.87;7.17;;;;;;;;;;6216230;28;20233;-71
2022/02/23 01:53:48;;;;;;;21.10;6.37;;;;;;;;;;6214645;28;20568;-70
2022/02/23 01:57:09;;;;;;;20.03;5.87;;;;;;;;;;6216164;28;20315;-70
2022/02/23 02:00:31;;;;;;;14.17;5.10;;;;;;;;;;6216265;28;20617;-70
2022/02/23 02:03:52;;;;;;;22.00;7.70;;;;;;;;;;6212829;28;20225;-70
2022/02/23 02:07:12;;;;;;;20.27;6.93;;;;;;;;;;6215058;28;20320;-70
2022/02/23 02:10:33;;;;;;;17.83;6.23;;;;;;;;;;6216273;28;20221;-70
2022/02/23 02:13:53;;;;;;;16.60;5.23;;;;;;;;;;6218125;28;20233;-70
2022/02/23 02:17:15;;;;;;;22.87;7.80;;;;;;;;;;6220851;28;20233;-70
2022/02/23 02:20:35;;;;;;;25.17;7.90;;;;;;;;;;6200924;28;20248;-70
2022/02/23 02:23:57;;;;;;;20.90;5.87;;;;;;;;;;6208146;28;20232;-71
2022/02/23 02:27:18;;;;;;;29.43;7.73;;;;;;;;;;6213098;28;20233;-71
2022/02/23 02:30:38;;;;;;;20.10;6.30;;;;;;;;;;6211636;28;20221;-70
2022/02/23 02:34:00;;;;;;;24.03;6.87;;;;;;;;;;6212324;28;20234;-70
2022/02/23 02:37:20;;;;;;;23.90;7.77;;;;;;;;;;6213079;28;20252;-71
2022/02/23 02:40:42;;;;;;;20.87;5.97;;;;;;;;;;6218860;28;20229;-71
2022/02/23 02:44:03;;;;;;;25.17;6.10;;;;;;;;;;6215937;28;20674;-71
2022/02/23 02:47:24;;;;;;;21.67;6.90;;;;;;;;;;6219014;28;20234;-70
2022/02/23 02:50:45;;;;;;;19.00;6.73;;;;;;;;;;6202875;28;20833;-70
2022/02/23 02:54:06;;;;;;;31.43;8.40;;;;;;;;;;6218082;28;20286;-70
2022/02/23 02:57:28;;;;;;;17.63;6.33;;;;;;;;;;6218622;28;20225;-70
2022/02/23 03:00:48;;;;;;;26.97;8.30;;;;;;;;;;6212971;28;20260;-70
2022/02/23 03:04:09;;;;;;;20.50;6.03;;;;;;;;;;6217054;28;20237;-70
2022/02/23 03:07:29;;;;;;;19.17;7.40;;;;;;;;;;6215841;28;20225;-70
2022/02/23 03:10:50;;;;;;;21.57;6.47;;;;;;;;;;6217415;28;20233;-69
2022/02/23 03:14:11;;;;;;;19.23;6.03;;;;;;;;;;6218852;28;20819;-70
2022/02/23 03:17:32;;;;;;;22.83;7.03;;;;;;;;;;6208108;28;20241;-70
2022/02/23 03:20:53;;;;;;;25.40;7.77;;;;;;;;;;6218294;28;20335;-70
2022/02/23 03:24:13;;;;;;;21.57;7.03;;;;;;;;;;6215089;28;20893;-69
2022/02/23 03:27:34;;;;;;;18.07;5.90;;;;;;;;;;6218301;28;20256;-70
2022/02/23 03:30:56;;;;;;;16.40;5.47;;;;;;;;;;6214370;28;20595;-71
2022/02/23 03:34:16;;;;;;;27.63;7.83;;;;;;;;;;6210134;28;20225;-71
2022/02/23 03:37:37;;;;;;;17.40;5.77;;;;;;;;;;6213349;28;20233;-70
2022/02/23 03:40:58;;;;;;;15.00;5.67;;;;;;;;;;6209958;28;20562;-70
2022/02/23 03:44:18;;;;;;;25.30;5.47;;;;;;;;;;6211369;28;20221;-70
2022/02/23 03:47:40;;;;;;;20.37;7.20;;;;;;;;;;6218516;28;20217;-70
2022/02/23 03:51:00;;;;;;;22.13;6.03;;;;;;;;;;6216424;28;20237;-69
2022/02/23 03:54:21;;;;;;;21.63;6.13;;;;;;;;;;6213312;28;20237;-70
2022/02/23 03:57:42;;;;;;;13.70;5.37;;;;;;;;;;6214202;28;20240;-70
2022/02/23 04:01:02;;;;;;;15.33;5.40;;;;;;;;;;6214379;28;20261;-70
2022/02/23 04:04:24;;;;;;;18.60;5.87;;;;;;;;;;6209014;28;20241;-71
2022/02/23 04:07:45;;;;;;;21.30;6.97;;;;;;;;;;6213017;28;20228;-70
2022/02/23 04:11:06;;;;;;;23.60;6.37;;;;;;;;;;6208167;28;20509;-70
2022/02/23 04:14:26;;;;;;;16.83;6.30;;;;;;;;;;6196927;28;20244;-69
2022/02/23 04:17:47;;;;;;;17.73;5.87;;;;;;;;;;6215468;28;20233;-70
2022/02/23 04:21:09;;;;;;;15.77;5.90;;;;;;;;;;6203820;28;20615;-70
2022/02/23 04:24:29;;;;;;;19.97;5.17;;;;;;;;;;6215815;28;20233;-70
2022/02/23 04:27:50;;;;;;;15.50;4.83;;;;;;;;;;6214093;28;20328;-69
2022/02/23 04:31:10;;;;;;;15.70;5.20;;;;;;;;;;6214724;28;20233;-71
2022/02/23 04:34:31;;;;;;;17.00;6.10;;;;;;;;;;6206825;28;20276;-69
2022/02/23 04:37:53;;;;;;;14.27;4.23;;;;;;;;;;6213449;28;20594;-70
2022/02/23 04:41:13;;;;;;;15.37;6.27;;;;;;;;;;6203980;28;20233;-69
2022/02/23 04:44:34;;;;;;;17.53;5.97;;;;;;;;;;6209886;28;20795;-69
2022/02/23 04:47:54;;;;;;;18.33;5.10;;;;;;;;;;6212954;28;20229;-70
2022/02/23 04:51:15;;;;;;;14.43;5.07;;;;;;;;;;6211859;28;20237;-70
2022/02/23 04:54:38;;;;;;;13.13;4.80;;;;;;;;;;6212675;28;20807;-70
2022/02/23 04:57:58;;;;;;;16.23;6.30;;;;;;;;;;6215576;28;20233;-70
2022/02/23 05:01:19;;;;;;;18.90;5.03;;;;;;;;;;6215913;28;20237;-69
2022/02/23 05:04:39;;;;;;;17.07;5.13;;;;;;;;;;6215237;28;20658;-70
2022/02/23 05:08:00;;;;;;;14.23;5.37;;;;;;;;;;6215676;28;20229;-70
2022/02/23 05:11:22;;;;;;;18.27;6.37;;;;;;;;;;6210117;28;20732;-70
2022/02/23 05:14:42;;;;;;;24.50;5.57;;;;;;;;;;6215586;28;20217;-70
2022/02/23 05:18:05;;;;;;;18.73;5.80;;;;;;;;;;6216341;28;20236;-69
2022/02/23 05:21:25;;;;;;;19.40;5.90;;;;;;;;;;6208678;28;20244;-69
2022/02/23 05:24:46;;;;;;;15.70;4.47;;;;;;;;;;6210769;28;20328;-70
2022/02/23 05:28:08;;;;;;;26.57;7.77;;;;;;;;;;6215964;28;20229;-70
2022/02/23 05:31:28;;;;;;;16.83;6.43;;;;;;;;;;6206304;28;20248;-71
2022/02/23 05:34:49;;;;;;;26.73;8.50;;;;;;;;;;6214305;28;20809;-70
2022/02/23 05:38:09;;;;;;;16.53;6.20;;;;;;;;;;6215964;28;20229;-70
2022/02/23 05:41:30;;;;;;;19.60;6.97;;;;;;;;;;6214708;28;20255;-70
2022/02/23 05:44:52;;;;;;;20.40;5.43;;;;;;;;;;6220280;28;20795;-70
2022/02/23 05:48:12;;;;;;;21.17;6.83;;;;;;;;;;6216812;28;20221;-70
2022/02/23 05:51:34;;;;;;;16.60;7.30;;;;;;;;;;6219480;28;20232;-70
2022/02/23 05:54:54;;;;;;;22.20;6.90;;;;;;;;;;6218993;28;20637;-70
2022/02/23 05:58:15;;;;;;;22.50;6.80;;;;;;;;;;6210445;28;20230;-71
2022/02/23 06:01:37;;;;;;;16.27;5.53;;;;;;;;;;6215704;28;20229;-71
2022/02/23 06:04:57;;;;;;;19.57;5.57;;;;;;;;;;6217495;28;20257;-70
2022/02/23 06:08:18;;;;;;;20.27;6.33;;;;;;;;;;6220001;28;20233;-69
2022/02/23 06:11:38;;;;;;;18.90;5.70;;;;;;;;;;6218853;28;20213;-70
2022/02/23 06:14:59;;;;;;;18.70;5.07;;;;;;;;;;6219429;28;20225;-71
2022/02/23 06:18:20;;;;;;;20.33;6.50;;;;;;;;;;6220183;28;20232;-70
2022/02/23 06:21:41;;;;;;;20.90;6.23;;;;;;;;;;6219408;28;20229;-70
2022/02/23 06:25:01;;;;;;;18.90;6.37;;;;;;;;;;6217474;28;20230;-71
2022/02/23 06:28:22;;;;;;;24.83;5.67;;;;;;;;;;6219221;28;20233;-70
2022/02/23 06:31:44;;;;;;;15.47;5.27;;;;;;;;;;6212268;28;20221;-70
2022/02/23 06:35:06;;;;;;;22.77;7.77;;;;;;;;;;6210825;28;20226;-70
2022/02/23 06:38:27;;;;;;;22.07;6.97;;;;;;;;;;6217564;28;20361;-70
2022/02/23 06:41:48;;;;;;;23.80;6.90;;;;;;;;;;6219087;28;20238;-71
2022/02/23 06:45:09;;;;;;;27.77;8.30;;;;;;;;;;6214878;28;20606;-71
2022/02/23 06:48:31;;;;;;;20.10;6.77;;;;;;;;;;6214221;28;20225;-70
2022/02/23 06:51:56;;;;;;;21.83;6.93;;;;;;;;;;6215571;28;20233;-70
2022/02/23 06:55:17;;;;;;;20.27;6.73;;;;;;;;;;6217729;28;23057;-70
2022/02/23 06:58:44;;;;;;;22.47;6.03;;;;;;;;;;6218169;28;20229;-70
2022/02/23 07:02:04;;;;;;;23.77;7.33;;;;;;;;;;6218868;28;20392;-69
2022/02/23 07:05:24;;;;;;;17.93;4.90;;;;;;;;;;6214503;28;20320;-71
2022/02/23 07:08:47;;;;;;;17.33;6.47;;;;;;;;;;6214375;28;20529;-70
2022/02/23 07:12:09;;;;;;;16.30;6.13;;;;;;;;;;6218221;28;20570;-71
2022/02/23 07:15:30;;;;;;;16.83;5.50;;;;;;;;;;6215049;28;20270;-70
2022/02/23 07:18:51;;;;;;;22.17;8.83;;;;;;;;;;6217818;28;20229;-70
2022/02/23 07:22:11;;;;;;;23.57;5.33;;;;;;;;;;6216300;28;20324;-70
2022/02/23 07:25:33;;;;;;;19.50;5.93;;;;;;;;;;6201021;28;20233;-69
2022/02/23 07:28:53;;;;;;;24.27;8.07;;;;;;;;;;6217342;28;20931;-70
2022/02/23 07:32:14;;;;;;;16.00;5.53;;;;;;;;;;6212926;28;21111;-70
2022/02/23 07:35:34;;;;;;;20.83;7.47;;;;;;;;;;6217410;28;20237;-70
2022/02/23 07:38:55;;;;;;;19.80;6.83;;;;;;;;;;6217538;28;20689;-71
2022/02/23 07:42:18;;;;;;;20.10;5.60;;;;;;;;;;6217607;28;20225;-70
2022/02/23 07:45:40;;;;;;;11.10;4.33;;;;;;;;;;6216192;28;20253;-70
2022/02/23 07:49:01;;;;;;;20.63;6.70;;;;;;;;;;6214057;28;20228;-70
2022/02/23 07:52:21;;;;;;;22.10;6.33;;;;;;;;;;6217082;28;20271;-70
2022/02/23 07:55:42;;;;;;;25.53;7.47;;;;;;;;;;6215985;28;20233;-70
2022/02/23 07:59:04;;;;;;;21.27;5.87;;;;;;;;;;6217140;28;20252;-71
2022/02/23 08:02:24;;;;;;;23.17;7.10;;;;;;;;;;6214895;28;20801;-70
2022/02/23 08:05:45;;;;;;;17.73;5.67;;;;;;;;;;6211555;28;20236;-69
2022/02/23 08:09:08;;;;;;;14.53;5.50;;;;;;;;;;6213614;28;20225;-71
2022/02/23 08:12:28;;;;;;;21.77;6.77;;;;;;;;;;6210222;28;20331;-69
2022/02/23 08:19:44;;;;;;;22.73;6.10;;;;;;;;;;6142633;28;20231;-70
2022/02/23 08:23:05;;;;;;;19.67;6.23;;;;;;;;;;6152142;28;21002;-70
2022/02/23 08:26:26;;;;;;;24.07;5.87;;;;;;;;;;6214610;28;20618;-70
2022/02/23 08:29:47;;;;;;;16.63;6.53;;;;;;;;;;6214829;28;20574;-69
2022/02/23 08:33:08;;;;;;;17.87;7.20;;;;;;;;;;6208102;28;20237;-70
2022/02/23 08:36:29;;;;;;;23.40;6.30;;;;;;;;;;6201508;28;20245;-71
2022/02/23 08:39:51;;;;;;;23.03;7.73;;;;;;;;;;6216579;28;20647;-70
2022/02/23 08:43:12;;;;;;;19.10;7.40;;;;;;;;;;6214064;28;20229;-69
2022/02/23 08:46:32;;;;;;;23.77;5.73;;;;;;;;;;6207338;28;20275;-70
2022/02/23 08:49:54;;;;;;;12.87;4.97;;;;;;;;;;6215512;28;20614;-69
2022/02/23 08:53:15;;;;;;;21.20;7.13;;;;;;;;;;6214934;28;20316;-69
2022/02/23 08:56:35;;;;;;;19.20;6.33;;;;;;;;;;6210639;28;20611;-70
2022/02/23 08:59:56;;;;;;;38.80;8.33;;;;;;;;;;6213880;28;20229;-69
2022/02/23 09:03:16;;;;;;;20.37;6.13;;;;;;;;;;6208438;28;20237;-70
2022/02/23 09:06:39;;;;;;;14.33;5.03;;;;;;;;;;6214748;28;20221;-70
2022/02/23 09:10:00;;;;;;;19.47;5.60;;;;;;;;;;6214973;28;20947;-70
2022/02/23 09:13:20;;;;;;;14.47;4.97;;;;;;;;;;6215111;28;20241;-71
2022/02/23 09:16:41;;;;;;;18.23;6.00;;;;;;;;;;6214242;28;20221;-70
2022/02/23 09:20:02;;;;;;;18.07;5.90;;;;;;;;;;6215431;28;20233;-71
2022/02/23 09:23:25;;;;;;;15.43;5.43;;;;;;;;;;6214651;28;20241;-70
2022/02/23 09:26:45;;;;;;;17.17;4.23;;;;;;;;;;6215180;28;20498;-71
2022/02/23 09:30:08;;;;;;;15.57;6.13;;;;;;;;;;6205715;28;20320;-70
2022/02/23 09:33:28;;;;;;;19.20;5.37;;;;;;;;;;6208005;28;20236;-69
2022/02/23 09:36:49;;;;;;;19.67;6.27;;;;;;;;;;6215301;28;20327;-70
2022/02/23 09:40:12;;;;;;;16.57;6.03;;;;;;;;;;6214545;28;20236;-69
2022/02/23 09:43:32;;;;;;;23.23;7.20;;;;;;;;;;6212959;28;20248;-70
2022/02/23 09:46:53;;;;;;;14.63;5.77;;;;;;;;;;6210658;28;20315;-70
2022/02/23 09:50:18;;;;;;;17.90;5.03;;;;;;;;;;6210701;28;20221;-70
2022/02/23 09:53:45;;;;;;;11.33;4.80;;;;;;;;;;6209330;28;20225;-69
2022/02/23 09:57:06;;;;;;;14.50;4.73;;;;;;;;;;6214211;28;20241;-70
2022/02/23 10:00:27;;;;;;;15.90;4.57;;;;;;;;;;6211932;28;20266;-70
2022/02/23 10:03:50;;;;;;;11.47;4.60;;;;;;;;;;6213735;28;20237;-70
2022/02/23 10:07:11;;;;;;;14.50;4.33;;;;;;;;;;6213007;28;20233;-71
2022/02/23 10:10:32;;;;;;;11.67;4.20;;;;;;;;;;6210566;28;20752;-71
2022/02/23 10:13:56;;;;;;;15.53;5.43;;;;;;;;;;6211669;28;20324;-71
2022/02/23 10:17:36;;;;;;;12.83;4.63;;;;;;;;;;6212923;28;20233;-70
2022/02/23 10:20:57;;;;;;;17.95;6.03;;;;;;;;;;6212284;28;20280;-70
2022/02/23 10:24:18;;;;;;;16.10;6.15;;;;;;;;;;6205433;28;20237;-70
2022/02/23 10:27:38;;;;;;;12.50;4.13;;;;;;;;;;6212083;28;20316;-71
2022/02/23 10:31:01;;;;;;;12.20;5.38;;;;;;;;;;6209296;28;20240;-71
2022/02/23 10:34:22;;;;;;;16.48;6.22;;;;;;;;;;6218094;28;20232;-71
2022/02/23 10:37:42;;;;;;;11.02;3.85;;;;;;;;;;6215300;28;20221;-71
2022/02/23 10:41:04;;;;;;;15.60;5.05;;;;;;;;;;6204500;28;20261;-71
2022/02/23 10:44:26;;;;;;;11.45;4.00;;;;;;;;;;6213369;28;20523;-69
2022/02/23 10:47:49;;;;;;;15.65;4.35;;;;;;;;;;6219738;28;20233;-70
2022/02/23 10:51:10;;;;;;;12.30;4.68;;;;;;;;;;6217610;28;20229;-70
2022/02/23 10:54:31;;;;;;;13.05;4.07;;;;;;;;;;6216641;28;20236;-69
2022/02/23 10:57:54;;;;;;;13.38;5.72;;;;;;;;;;6213722;28;20320;-69
2022/02/23 11:01:15;;;;;;;11.48;3.97;;;;;;;;;;6214478;28;20806;-70
2022/02/23 11:04:37;;;;;;;8.93;4.67;;;;;;;;;;6206521;28;20233;-70
2022/02/23 11:07:59;;;;;;;12.27;3.97;;;;;;;;;;6215131;28;20240;-69
2022/02/23 11:11:20;;;;;;;8.07;3.28;;;;;;;;;;6212273;28;20525;-70
2022/02/23 11:14:42;;;;;;;13.60;6.72;;;;;;;;;;6216558;28;20228;-70
2022/02/23 11:18:03;;;;;;;11.20;4.13;;;;;;;;;;6217707;28;20611;-70
2022/02/23 11:21:26;;;;;;;8.55;3.50;;;;;;;;;;6218627;28;20237;-70
2022/02/23 11:24:46;;;;;;;11.18;4.07;;;;;;;;;;6214510;28;20320;-71
2022/02/23 11:28:09;;;;;;;9.07;3.83;;;;;;;;;;6216869;28;20324;-70
2022/02/23 11:31:34;;;;;;;11.63;4.75;;;;;;;;;;6210620;28;20308;-70
2022/02/23 11:34:55;;;;;;;6.55;2.92;;;;;;;;;;6213621;28;20236;-71
2022/02/23 11:38:18;;;;;;;8.20;2.85;;;;;;;;;;6217644;28;20643;-71
2022/02/23 11:41:40;;;;;;;9.85;3.42;;;;;;;;;;6215434;28;20221;-70
2022/02/23 11:45:09;;;;;;;8.60;3.25;;;;;;;;;;6211687;28;20509;-70
2022/02/23 11:48:44;;;;;;;9.68;3.35;;;;;;;;;;6216966;28;20228;-71
2022/02/23 11:52:06;;;;;;;7.85;3.13;;;;;;;;;;6215767;28;20225;-71
2022/02/23 11:55:29;;;;;;;8.68;3.95;;;;;;;;;;6215009;28;20241;-71
2022/02/23 11:58:51;;;;;;;8.38;4.13;;;;;;;;;;6216890;28;20229;-70
2022/02/23 12:02:11;;;;;;;7.40;2.65;;;;;;;;;;6213825;28;20241;-70
2022/02/23 12:05:37;;;;;;;11.10;2.90;;;;;;;;;;6212757;28;20296;-70
2022/02/23 12:08:57;;;;;;;7.17;2.37;;;;;;;;;;6214013;28;20315;-70
2022/02/23 12:12:31;;;;;;;6.13;2.20;;;;;;;;;;6208556;28;20232;-71
2022/02/23 12:15:52;;;;;;;6.47;2.47;;;;;;;;;;6216281;28;25658;-70
2022/02/23 12:19:13;;;;;;;6.53;2.57;;;;;;;;;;6214424;28;20229;-71
2022/02/23 12:22:37;;;;;;;4.90;2.20;;;;;;;;;;6211362;28;20324;-70
2022/02/23 12:25:58;;;;;;;4.97;2.40;;;;;;;;;;6212945;28;20233;-71
2022/02/23 12:29:23;;;;;;;6.90;2.53;;;;;;;;;;6211749;28;20263;-71
2022/02/23 12:32:43;;;;;;;6.20;2.83;;;;;;;;;;6213424;28;20225;-71
2022/02/23 12:36:05;;;;;;;7.13;2.10;;;;;;;;;;6213765;28;20245;-72
2022/02/23 12:39:26;;;;;;;4.80;2.00;;;;;;;;;;6215082;28;20245;-71
2022/02/23 12:42:47;;;;;;;3.63;2.33;;;;;;;;;;6213575;28;20229;-69
2022/02/23 12:46:09;;;;;;;3.60;2.13;;;;;;;;;;6214602;28;20250;-72
2022/02/23 12:49:31;;;;;;;4.45;2.45;;;;;;;;;;6213098;28;20233;-71
2022/02/23 12:52:51;;;;;;;8.80;2.90;;;;;;;;;;6216813;28;20308;-70
2022/02/23 12:56:16;;;;;;;4.85;1.83;;;;;;;;;;6213015;28;20269;-72
2022/02/23 12:59:39;;;;;;;3.70;1.80;;;;;;;;;;6213423;28;20857;-70
2022/02/23 13:03:07;;;;;;;3.60;1.87;;;;;;;;;;6215902;28;20233;-70
2022/02/23 13:06:29;;;;;;;4.27;2.17;;;;;;;;;;6215439;28;20236;-70
2022/02/23 13:09:51;;;;;;;3.03;1.67;;;;;;;;;;6211796;28;20658;-71
2022/02/23 13:13:13;;;;;;;5.93;2.53;;;;;;;;;;6215206;28;20259;-71
2022/02/23 13:16:34;;;;;;;5.17;1.80;;;;;;;;;;6206215;28;20337;-73
2022/02/23 13:19:56;;;;;;;5.90;1.43;;;;;;;;;;6215751;28;20221;-70
2022/02/23 13:23:19;;;;;;;3.87;2.07;;;;;;;;;;6208687;28;20241;-70
2022/02/23 13:26:41;;;;;;;1.97;1.10;;;;;;;;;;6215127;28;20228;-71
2022/02/23 13:30:05;;;;;;;5.87;1.50;;;;;;;;;;6213443;28;20237;-70
2022/02/23 13:33:27;;;;;;;5.97;1.60;;;;;;;;;;6212668;28;20692;-71
2022/02/23 13:36:49;;;;;;;2.63;1.87;;;;;;;;;;6212841;28;20233;-71
2022/02/23 13:40:13;;;;;;;4.00;2.03;;;;;;;;;;6214805;28;20316;-71
2022/02/23 13:43:35;;;;;;;3.30;1.87;;;;;;;;;;6212008;28;20233;-71
2022/02/23 13:47:00;;;;;;;6.43;2.27;;;;;;;;;;6216028;28;20247;-71
2022/02/23 13:50:21;;;;;;;2.97;1.83;;;;;;;;;;6214488;28;20224;-71
2022/02/23 13:53:50;;;;;;;4.70;1.77;;;;;;;;;;6213175;28;20229;-70
2022/02/23 13:57:13;;;;;;;2.50;1.60;;;;;;;;;;6215352;28;20225;-71
2022/02/23 14:00:35;;;;;;;5.27;1.63;;;;;;;;;;6209280;28;20263;-71
2022/02/23 14:03:56;;;;;;;3.53;1.70;;;;;;;;;;6214694;28;20560;-71
2022/02/23 14:07:21;;;;;;;5.63;2.70;;;;;;;;;;6215989;28;20221;-71
2022/02/23 14:10:45;;;;;;;5.87;2.73;;;;;;;;;;6211762;28;20368;-70
2022/02/23 14:14:13;;;;;;;4.57;1.60;;;;;;;;;;6217987;28;20221;-72
2022/02/23 14:17:34;;;;;;;5.63;2.50;;;;;;;;;;6215338;28;20800;-71
2022/02/23 14:20:55;;;;;;;2.47;1.73;;;;;;;;;;6213423;28;20895;-71
2022/02/23 14:24:17;;;;;;;5.77;2.33;;;;;;;;;;6217347;28;20226;-71
2022/02/23 14:27:41;;;;;;;5.90;2.93;;;;;;;;;;6214560;28;20233;-70
2022/02/23 14:31:02;;;;;;;4.93;1.80;;;;;;;;;;6214838;28;20229;-71
2022/02/23 14:34:24;;;;;;;4.83;2.17;;;;;;;;;;6213303;28;20237;-70
2022/02/23 14:37:46;;;;;;;3.87;2.37;;;;;;;;;;6219209;28;20224;-71
2022/02/23 14:41:07;;;;;;;3.57;2.23;;;;;;;;;;6226063;28;20229;-71
2022/02/23 14:44:29;;;;;;;6.73;2.40;;;;;;;;;;6213595;28;20240;-70
2022/02/23 14:47:50;;;;;;;5.70;2.37;;;;;;;;;;6221804;28;20241;-70
2022/02/23 14:51:11;;;;;;;8.13;2.50;;;;;;;;;;6215868;28;20225;-70
2022/02/23 14:54:32;;;;;;;5.50;2.23;;;;;;;;;;6214486;28;20226;-70
2022/02/23 14:57:52;;;;;;;11.90;3.10;;;;;;;;;;6215591;28;20229;-69
2022/02/23 15:01:14;;;;;;;5.87;3.17;;;;;;;;;;6209662;28;20237;-70
2022/02/23 15:04:35;;;;;;;5.00;2.27;;;;;;;;;;6215094;28;20233;-70
2022/02/23 15:07:59;;;;;;;7.43;2.13;;;;;;;;;;6218544;28;20229;-70
2022/02/23 15:11:19;;;;;;;4.63;2.57;;;;;;;;;;6212572;28;20229;-70
2022/02/23 15:14:40;;;;;;;4.23;2.37;;;;;;;;;;6210682;28;20311;-70
2022/02/23 15:18:03;;;;;;;4.77;2.77;;;;;;;;;;6217158;28;20265;-71
2022/02/23 15:21:24;;;;;;;4.43;2.07;;;;;;;;;;6212028;28;20241;-71
2022/02/23 15:24:45;;;;;;;4.97;1.90;;;;;;;;;;6215455;28;20591;-70
2022/02/23 15:28:07;;;;;;;8.90;3.10;;;;;;;;;;6216814;28;20233;-71
2022/02/23 15:31:28;;;;;;;3.13;1.80;;;;;;;;;;6213761;28;20233;-70
2022/02/23 15:34:50;;;;;;;10.30;2.43;;;;;;;;;;6213093;28;20641;-70
2022/02/23 15:38:10;;;;;;;4.57;1.97;;;;;;;;;;6217253;28;20266;-70
2022/02/23 15:41:31;;;;;;;5.10;2.37;;;;;;;;;;6199950;28;20639;-69
2022/02/23 15:44:51;;;;;;;4.83;1.93;;;;;;;;;;6210956;28;20225;-70
2022/02/23 15:48:12;;;;;;;10.60;4.40;;;;;;;;;;6218343;28;20237;-70
2022/02/23 15:51:34;;;;;;;5.93;2.40;;;;;;;;;;6195401;28;20241;-70
2022/02/23 15:54:55;;;;;;;4.63;1.37;;;;;;;;;;6212530;28;20225;-71
2022/02/23 15:58:15;;;;;;;4.90;2.73;;;;;;;;;;6216400;28;20228;-71
2022/02/23 16:01:36;;;;;;;5.47;2.13;;;;;;;;;;6202508;28;20509;-70
2022/02/23 16:04:57;;;;;;;4.40;1.90;;;;;;;;;;6216333;28;20237;-71
2022/02/23 16:08:19;;;;;;;3.83;2.10;;;;;;;;;;6216116;28;20316;-71
2022/02/23 16:11:39;;;;;;;4.10;1.63;;;;;;;;;;6212389;28;20237;-70
2022/02/23 16:15:00;;;;;;;4.87;2.03;;;;;;;;;;6214002;28;20237;-71
2022/02/23 16:18:20;;;;;;;6.33;1.70;;;;;;;;;;6213194;28;20221;-69
2022/02/23 16:21:41;;;;;;;6.13;2.50;;;;;;;;;;6216100;28;20236;-71
2022/02/23 16:25:03;;;;;;;2.97;1.67;;;;;;;;;;6226929;28;20330;-70
2022/02/23 16:28:24;;;;;;;7.67;3.13;;;;;;;;;;6211531;28;20225;-70
2022/02/23 16:31:44;;;;;;;4.87;2.33;;;;;;;;;;6216271;28;20262;-71
2022/02/23 16:35:05;;;;;;;2.60;1.70;;;;;;;;;;6214981;28;20229;-71
2022/02/23 16:38:26;;;;;;;3.53;1.63;;;;;;;;;;6209910;28;20237;-70
2022/02/23 16:41:48;;;;;;;4.40;2.30;;;;;;;;;;6209083;28;20229;-70
2022/02/23 16:45:09;;;;;;;4.20;2.30;;;;;;;;;;6206268;28;20247;-70
2022/02/23 16:48:29;;;;;;;5.93;1.80;;;;;;;;;;6214017;28;20550;-70
2022/02/23 16:51:49;;;;;;;5.63;2.30;;;;;;;;;;6207187;28;20250;-70
2022/02/23 16:55:10;;;;;;;6.00;2.00;;;;;;;;;;6214455;28;20236;-71
2022/02/23 16:58:32;;;;;;;2.67;1.57;;;;;;;;;;6213916;28;20229;-71
2022/02/23 17:01:53;;;;;;;4.10;2.13;;;;;;;;;;6209392;28;20256;-71
2022/02/23 17:05:13;;;;;;;3.17;2.20;;;;;;;;;;6212632;28;20237;-70
2022/02/23 17:08:37;;;;;;;6.10;2.13;;;;;;;;;;6210183;28;20240;-71
2022/02/23 17:11:58;;;;;;;5.60;2.27;;;;;;;;;;6207818;28;20233;-70
2022/02/23 17:15:19;;;;;;;6.03;2.60;;;;;;;;;;6215501;28;20225;-71
2022/02/23 17:18:40;;;;;;;3.57;2.03;;;;;;;;;;6209331;28;20233;-70
2022/02/23 17:22:01;;;;;;;4.40;2.07;;;;;;;;;;6215638;28;20333;-71
2022/02/23 17:25:21;;;;;;;4.20;1.80;;;;;;;;;;6212613;28;20241;-70
2022/02/23 17:28:42;;;;;;;2.10;1.47;;;;;;;;;;6215600;28;20562;-71
2022/02/23 17:32:05;;;;;;;5.90;2.00;;;;;;;;;;6215016;28;20620;-71
2022/02/23 17:35:25;;;;;;;5.70;2.07;;;;;;;;;;6206807;28;20237;-71
2022/02/23 17:38:45;;;;;;;3.07;2.20;;;;;;;;;;6212228;28;20547;-71
2022/02/23 17:42:06;;;;;;;3.63;1.60;;;;;;;;;;6214329;28;20319;-71
2022/02/23 17:45:27;;;;;;;4.30;1.97;;;;;;;;;;6219405;28;20237;-71
2022/02/23 17:48:50;;;;;;;4.50;2.20;;;;;;;;;;6213520;28;24992;-71
2022/02/23 17:52:10;;;;;;;5.60;2.37;;;;;;;;;;6218319;28;20233;-71
2022/02/23 17:55:31;;;;;;;5.63;2.03;;;;;;;;;;6217751;28;20244;-71
2022/02/23 17:58:51;;;;;;;4.07;1.60;;;;;;;;;;6217630;28;20256;-71
2022/02/23 18:02:12;;;;;;;6.37;2.70;;;;;;;;;;6216964;28;20233;-70
2022/02/23 18:05:34;;;;;;;5.57;1.70;;;;;;;;;;6216920;28;20241;-71
2022/02/23 18:08:54;;;;;;;6.47;1.93;;;;;;;;;;6214527;28;20244;-70
2022/02/23 18:12:15;;;;;;;6.53;2.17;;;;;;;;;;6214418;28;20229;-72
2022/02/23 18:15:36;;;;;;;5.93;2.13;;;;;;;;;;6215375;28;20233;-71
2022/02/23 18:18:56;;;;;;;7.70;2.37;;;;;;;;;;6216015;28;20241;-70
2022/02/23 18:22:18;;;;;;;6.50;2.70;;;;;;;;;;6219553;28;20226;-70
2022/02/23 18:25:39;;;;;;;6.57;2.47;;;;;;;;;;6217633;28;20670;-71
2022/02/23 18:29:00;;;;;;;7.37;4.30;;;;;;;;;;6218436;28;22395;-71
2022/02/23 18:32:20;;;;;;;8.37;3.83;;;;;;;;;;6220261;28;20673;-70
2022/02/23 18:35:41;;;;;;;6.47;4.20;;;;;;;;;;6217783;28;20300;-70
2022/02/23 18:39:03;;;;;;;4.97;2.50;;;;;;;;;;6217165;28;20241;-70
2022/02/23 18:42:24;;;;;;;6.03;3.97;;;;;;;;;;6211945;28;20295;-71
2022/02/23 18:45:45;;;;;;;8.83;3.73;;;;;;;;;;6219047;28;20233;-71
2022/02/23 18:49:06;;;;;;;18.57;13.70;;;;;;;;;;6215662;28;20259;-71
2022/02/23 18:52:26;;;;;;;40.43;30.10;;;;;;;;;;6212763;28;20233;-72
2022/02/23 18:55:48;;;;;;;12.77;6.70;;;;;;;;;;6216605;28;20233;-72
2022/02/23 18:59:09;;;;;;;8.70;4.70;;;;;;;;;;6218429;28;20232;-71
2022/02/23 19:02:29;;;;;;;7.17;4.60;;;;;;;;;;6217199;28;20237;-71
2022/02/23 19:05:50;;;;;;;6.20;4.57;;;;;;;;;;6216676;28;20225;-70
2022/02/23 19:09:10;;;;;;;6.47;3.07;;;;;;;;;;6216604;28;20229;-71
2022/02/23 19:12:32;;;;;;;5.60;2.77;;;;;;;;;;6211302;28;20237;-71
2022/02/23 19:15:53;;;;;;;4.87;3.17;;;;;;;;;;6218381;28;20221;-70
2022/02/23 19:19:14;;;;;;;4.23;2.70;;;;;;;;;;6216659;28;20627;-70
2022/02/23 19:22:34;;;;;;;5.30;2.87;;;;;;;;;;6211506;28;20233;-70
2022/02/23 19:25:55;;;;;;;5.83;2.43;;;;;;;;;;6207527;28;20241;-71
2022/02/23 19:29:17;;;;;;;9.80;2.87;;;;;;;;;;6214987;28;20245;-71
2022/02/23 19:32:39;;;;;;;6.67;2.90;;;;;;;;;;6218933;28;20233;-71
2022/02/23 19:35:59;;;;;;;7.30;3.03;;;;;;;;;;6207994;28;20230;-70
2022/02/23 19:39:20;;;;;;;4.67;2.47;;;;;;;;;;6214416;28;20225;-70
2022/02/23 19:42:41;;;;;;;5.57;3.20;;;;;;;;;;6215135;28;20232;-70
2022/02/23 19:46:03;;;;;;;6.97;4.03;;;;;;;;;;6216516;28;20237;-72
2022/02/23 19:49:23;;;;;;;4.87;3.13;;;;;;;;;;6217008;28;20225;-71
2022/02/23 19:52:45;;;;;;;7.67;3.13;;;;;;;;;;6218381;28;20593;-71
2022/02/23 19:56:06;;;;;;;5.73;3.27;;;;;;;;;;6209545;28;20241;-71
2022/02/23 19:59:27;;;;;;;7.83;4.07;;;;;;;;;;6215716;28;20268;-71
2022/02/23 20:02:50;;;;;;;4.97;3.23;;;;;;;;;;6218140;28;20228;-71